Time;durP1;ratioP1;P1;durP2;ratioP2;P2;SDS_P1;SDS_P2;PMS_P1;PMS_P2;Temp;Humidity;BMP_temperature;BMP_pressure;BME280_temperature;BME280_humidity;BME280_pressure;Samples;Min_cycle;Max_cycle;Signal;HPM_P1;HPM_P2
2023/05/20 07:01:17;;;;;;;11.15;2.15;;;18.30;99.90;20.60;102161.00;;;;6308382;22;20190;-69
2023/05/20 07:03:43;;;;;;;1.98;1.00;;;18.30;99.90;20.20;102167.00;;;;6256861;22;20184;-69
2023/05/20 07:06:12;;;;;;;1.33;1.00;;;17.90;99.90;19.90;102183.00;;;;6282464;22;20145;-69
2023/05/20 07:08:39;;;;;;;1.35;1.25;;;18.10;99.90;20.60;102164.00;;;;6309540;22;20137;-70
2023/05/20 07:11:05;;;;;;;0.68;0.68;;;18.40;99.90;21.30;102153.00;;;;6256520;22;20490;-69
2023/05/20 07:13:33;;;;;;;0.30;0.30;;;18.50;99.90;23.40;102119.00;;;;6309546;22;20474;-69
2023/05/20 07:15:59;;;;;;;0.98;0.98;;;19.50;99.90;21.30;102148.00;;;;6256351;22;20159;-69
2023/05/20 07:18:25;;;;;;;1.65;0.40;;;19.70;99.90;22.50;102135.00;;;;6282307;22;20141;-69
2023/05/20 07:20:57;;;;;;;1.17;1.08;;;19.90;99.90;21.60;102157.00;;;;6281803;22;20148;-68
2023/05/20 07:23:25;;;;;;;0.40;0.40;;;19.80;99.90;23.20;102134.00;;;;6309391;22;20167;-70
2023/05/20 07:25:52;;;;;;;0.98;0.98;;;20.10;99.90;22.60;102098.00;;;;6255697;22;20163;-70
2023/05/20 07:28:20;;;;;;;0.40;0.40;;;20.20;99.90;22.20;102152.00;;;;6308813;22;20610;-70
2023/05/20 07:30:48;;;;;;;1.67;1.58;;;19.80;99.90;22.70;102142.00;;;;6308882;22;20231;-70
2023/05/20 07:33:17;;;;;;;0.10;0.10;;;20.20;99.90;22.70;102143.00;;;;6282878;22;20471;-70
2023/05/20 07:35:47;;;;;;;1.23;1.17;;;20.40;99.90;21.70;102161.00;;;;6308770;22;20510;-70
2023/05/20 07:38:18;;;;;;;1.70;1.23;;;20.00;99.90;21.00;102172.00;;;;6309008;22;20140;-68
2023/05/20 07:40:47;;;;;;;0.73;0.73;;;19.00;99.90;21.80;102161.00;;;;6309203;22;20167;-68
2023/05/20 07:43:13;;;;;;;1.65;1.17;;;19.30;99.90;21.80;102125.00;;;;6281134;22;20580;-69
2023/05/20 07:45:39;;;;;;;1.33;1.05;;;19.60;99.90;21.80;102149.00;;;;6280768;22;20210;-68
2023/05/20 07:48:07;;;;;;;1.17;0.52;;;19.50;99.90;22.70;102137.00;;;;6281888;22;20560;-70
2023/05/20 07:50:35;;;;;;;1.85;1.67;;;19.70;99.90;20.40;102175.00;;;;6281799;22;20161;-70
2023/05/20 07:53:05;;;;;;;0.38;0.38;;;19.10;99.90;22.10;102131.00;;;;6282157;22;20151;-71
2023/05/20 07:55:38;;;;;;;2.40;1.88;;;19.60;99.90;21.30;102150.00;;;;6255572;22;20218;-71
2023/05/20 07:58:07;;;;;;;1.13;1.02;;;19.80;99.90;22.00;102148.00;;;;6282521;22;20147;-71
2023/05/20 08:00:41;;;;;;;1.60;1.50;;;19.40;99.90;22.50;102108.00;;;;6276020;22;20585;-70
2023/05/20 08:03:07;;;;;;;6.13;1.65;;;20.30;99.90;22.20;102120.00;;;;6277741;22;20638;-70
2023/05/20 08:05:37;;;;;;;1.88;0.50;;;20.20;99.90;22.40;102129.00;;;;6250692;22;20164;-70
2023/05/20 08:08:29;;;;;;;0.40;0.40;;;20.20;99.90;23.30;102039.00;;;;6276718;22;20464;-71
2023/05/20 08:11:03;;;;;;;0.90;0.75;;;20.90;99.90;24.00;102071.00;;;;6251151;22;20530;-71
2023/05/20 08:13:53;;;;;;;5.28;1.27;;;21.40;99.90;23.70;102087.00;;;;6276091;22;20163;-72
2023/05/20 08:16:56;;;;;;;2.22;1.55;;;21.20;99.90;24.00;102039.00;;;;6275633;22;20143;-72
2023/05/20 08:19:57;;;;;;;1.23;1.23;;;21.20;99.90;23.70;102076.00;;;;6274798;22;20152;-72
2023/05/20 08:22:28;;;;;;;2.08;1.15;;;21.30;99.90;22.60;102090.00;;;;6276041;22;20500;-72
2023/05/20 08:25:32;;;;;;;0.47;0.47;;;20.80;99.90;22.20;102110.00;;;;6276436;22;20161;-72
2023/05/20 08:28:05;;;;;;;2.65;1.83;;;20.40;99.90;22.80;102086.00;;;;6275940;22;20239;-72
2023/05/20 08:30:43;;;;;;;5.72;1.92;;;20.60;99.90;21.80;102066.00;;;;6276357;22;20224;-72
2023/05/20 08:33:26;;;;;;;1.10;1.10;;;20.50;99.90;22.70;102096.00;;;;6248906;22;20167;-72
2023/05/20 08:35:53;;;;;;;5.43;1.30;;;20.50;99.90;22.90;102087.00;;;;6276547;22;20141;-73
2023/05/20 08:38:26;;;;;;;1.48;1.38;;;20.40;99.90;23.50;102082.00;;;;6250671;22;20180;-72
2023/05/20 08:41:21;;;;;;;1.13;0.77;;;20.70;99.90;22.70;102079.00;;;;6275528;22;20141;-72
2023/05/20 08:44:00;;;;;;;0.32;0.32;;;20.30;99.90;23.30;102071.00;;;;6274950;22;20646;-72
2023/05/20 08:46:35;;;;;;;0.40;0.38;;;20.70;99.90;24.00;102061.00;;;;6275223;22;20452;-70
2023/05/20 08:49:07;;;;;;;0.70;0.70;;;21.10;99.90;23.80;102054.00;;;;6277744;22;20157;-72
2023/05/20 08:51:52;;;;;;;0.77;0.77;;;21.20;99.90;23.30;102077.00;;;;6250471;22;20590;-70
2023/05/20 08:54:25;;;;;;;0.57;0.50;;;20.70;99.90;22.70;102069.00;;;;6276543;22;20231;-73
2023/05/20 08:56:55;;;;;;;2.30;1.10;;;20.80;99.90;23.00;102071.00;;;;6275597;22;20146;-74
2023/05/20 08:59:22;;;;;;;0.68;0.68;;;21.30;99.90;23.50;102055.00;;;;6283527;22;20501;-73
2023/05/20 09:02:10;;;;;;;1.20;0.65;;;21.00;99.90;21.80;102094.00;;;;6280025;22;20180;-73
2023/05/20 09:04:39;;;;;;;0.85;0.65;;;20.40;99.90;22.00;102104.00;;;;6281081;22;20159;-72
2023/05/20 09:07:30;;;;;;;0.93;0.63;;;20.40;99.90;22.70;102055.00;;;;6255793;22;20252;-68
2023/05/20 09:10:09;;;;;;;1.80;1.55;;;20.30;99.90;22.70;102095.00;;;;6280784;22;20564;-68
2023/05/20 09:12:42;;;;;;;2.72;1.58;;;20.60;99.90;23.10;102067.00;;;;6280873;22;20156;-67
2023/05/20 09:15:40;;;;;;;0.60;0.60;;;20.50;99.90;24.20;102039.00;;;;6281146;22;20238;-67
2023/05/20 09:18:07;;;;;;;2.20;1.40;;;20.80;99.90;22.30;102042.00;;;;6308170;22;20133;-70
2023/05/20 09:20:36;;;;;;;3.00;1.00;;;20.70;99.90;23.50;102045.00;;;;6281058;22;20798;-71
2023/05/20 09:23:08;;;;;;;0.95;0.95;;;21.00;99.90;22.90;102046.00;;;;6281065;22;20251;-71
2023/05/20 09:25:35;;;;;;;1.77;1.23;;;20.80;99.90;22.70;102041.00;;;;6255102;22;20657;-71
2023/05/20 09:28:14;;;;;;;0.68;0.65;;;20.80;99.90;21.60;102083.00;;;;6280155;22;20145;-72
2023/05/20 09:31:00;;;;;;;0.55;0.55;;;19.90;99.90;22.40;102059.00;;;;6281058;22;20471;-70
2023/05/20 09:33:29;;;;;;;1.00;0.95;;;19.90;99.90;23.20;102001.00;;;;6255047;22;20180;-72
2023/05/20 09:36:28;;;;;;;3.97;1.25;;;20.70;99.90;21.70;102075.00;;;;6281021;22;20250;-72
2023/05/20 09:39:03;;;;;;;0.17;0.17;;;20.00;99.90;23.70;101994.00;;;;6151436;22;20214;-72
2023/05/20 09:41:56;;;;;;;1.90;1.45;;;20.70;99.90;24.30;102023.00;;;;6281023;22;20514;-73
2023/05/20 09:44:34;;;;;;;2.58;0.73;;;21.30;99.90;23.80;102027.00;;;;6307710;22;20180;-72
2023/05/20 09:47:26;;;;;;;0.93;0.90;;;21.50;99.90;23.10;102028.00;;;;6254757;22;20159;-74
2023/05/20 09:50:08;;;;;;;1.17;0.75;;;21.20;99.90;23.30;102026.00;;;;6281367;22;20782;-74
2023/05/20 09:53:07;;;;;;;1.23;1.13;;;21.30;99.90;23.10;102040.00;;;;6255130;22;20594;-74
2023/05/20 09:55:46;;;;;;;0.45;0.25;;;20.80;99.90;24.40;102015.00;;;;6264860;22;20160;-73
2023/05/20 09:58:46;;;;;;;0.40;0.38;;;21.70;99.90;25.40;101973.00;;;;6307872;22;20167;-74
2023/05/20 10:01:46;;;;;;;2.15;0.60;;;22.10;99.90;23.60;102035.00;;;;6270542;22;20168;-74
2023/05/20 10:04:15;;;;;;;2.05;1.25;;;22.10;99.90;25.20;102004.00;;;;6269930;22;20634;-74
2023/05/20 10:06:50;;;;;;;2.83;1.42;;;22.30;99.90;22.90;102041.00;;;;6254549;22;20488;-70
2023/05/20 10:09:57;;;;;;;0.40;0.40;;;21.70;99.90;24.50;101977.00;;;;6279995;22;20560;-71
2023/05/20 10:13:01;;;;;;;1.33;1.17;;;21.60;99.90;23.40;102010.00;;;;6255233;22;20246;-70
2023/05/20 10:15:36;;;;;;;1.60;1.35;;;21.10;99.90;23.50;102004.00;;;;6307592;22;20148;-71
2023/05/20 10:18:53;;;;;;;1.05;0.95;;;21.40;99.90;23.10;102011.00;;;;6280464;22;20181;-70
2023/05/20 10:34:07;;;;;;;0.10;0.10;;;21.30;99.90;25.20;101976.00;;;;5090270;27;20529;-68
2023/05/20 10:37:03;;;;;;;2.05;1.08;;;22.10;99.90;23.10;101995.00;;;;5084865;28;20215;-69
2023/05/20 10:39:35;;;;;;;2.58;1.52;;;21.70;99.90;22.90;101991.00;;;;5007351;28;20333;-69
2023/05/20 10:42:11;;;;;;;0.60;0.60;;;21.40;99.90;24.40;101978.00;;;;4990049;28;20250;-69
2023/05/20 10:44:46;;;;;;;2.22;1.95;;;21.50;99.90;24.80;101951.00;;;;5065363;28;20197;-68
2023/05/20 10:47:27;;;;;;;0.30;0.30;;;22.10;99.90;24.70;101957.00;;;;5070228;28;20189;-68
2023/05/20 10:50:34;;;;;;;0.40;0.40;;;22.20;99.90;25.70;101940.00;;;;5076206;28;20193;-70
2023/05/20 10:56:55;;;;;;;0.20;0.20;;;22.50;99.90;25.30;101823.00;;;;5028197;28;20278;-69
2023/05/20 10:59:36;;;;;;;1.58;1.48;;;22.70;99.90;24.30;101951.00;;;;5074591;28;20189;-69
2023/05/20 11:02:31;;;;;;;1.17;0.82;;;22.20;99.90;24.10;101965.00;;;;5076072;28;20287;-69
2023/05/20 11:04:58;;;;;;;0.30;0.30;;;22.30;99.90;25.90;101953.00;;;;5066166;28;20278;-70
2023/05/20 11:07:42;;;;;;;1.13;1.13;;;22.70;99.90;24.10;101967.00;;;;5085305;28;20205;-69
2023/05/20 11:10:44;;;;;;;1.15;1.13;;;22.60;99.90;24.60;101968.00;;;;5066561;28;20671;-69
2023/05/20 11:13:55;;;;;;;1.33;0.93;;;22.20;99.90;25.50;101962.00;;;;5083454;28;20246;-69
2023/05/20 11:17:32;;;;;;;2.20;1.75;;;23.00;99.90;22.60;101988.00;;;;5062336;28;20194;-69
2023/05/20 11:20:26;;;;;;;4.97;1.10;;;21.90;99.90;23.30;101967.00;;;;5053430;28;20648;-69
2023/05/20 11:23:22;;;;;;;3.60;2.75;;;21.40;99.90;24.70;101967.00;;;;5062520;28;20224;-70
2023/05/20 11:26:17;;;;;;;1.20;0.68;;;21.60;99.90;26.00;101949.00;;;;5033066;28;20650;-70
2023/05/20 11:28:46;;;;;;;0.90;0.75;;;22.70;99.90;24.50;101945.00;;;;5061550;28;20209;-70
2023/05/20 11:31:23;;;;;;;2.75;0.68;;;22.70;99.90;25.40;101953.00;;;;5068951;28;20260;-69
2023/05/20 11:33:55;;;;;;;1.80;1.67;;;22.90;99.90;23.90;101956.00;;;;5057126;28;20192;-69
2023/05/20 11:36:31;;;;;;;0.30;0.30;;;22.50;99.90;26.30;101936.00;;;;5066840;28;20870;-69
2023/05/20 11:39:13;;;;;;;2.13;1.27;;;22.80;99.90;25.10;101951.00;;;;5051439;28;20196;-73
2023/05/20 11:42:17;;;;;;;0.98;0.90;;;23.10;99.90;25.20;101931.00;;;;5068680;28;20589;-70
2023/05/20 11:45:02;;;;;;;0.57;0.57;;;23.30;99.90;25.30;101916.00;;;;5044401;28;20195;-71
2023/05/20 11:47:28;;;;;;;0.90;0.60;;;22.80;99.90;24.70;101938.00;;;;5053998;28;20186;-71
2023/05/20 11:49:56;;;;;;;0.63;0.63;;;22.70;99.90;24.30;101945.00;;;;5068209;28;20189;-71
2023/05/20 11:52:53;;;;;;;1.10;0.90;;;22.20;99.90;23.40;101944.00;;;;5049458;28;20210;-72
2023/05/20 11:56:01;;;;;;;2.97;2.38;;;21.70;99.90;24.70;101934.00;;;;5047114;28;20197;-72
2023/05/20 11:58:43;;;;;;;1.00;0.90;;;21.70;99.90;25.50;101941.00;;;;5013227;28;20214;-72
2023/05/20 12:01:14;;;;;;;1.27;1.17;;;22.20;99.90;25.10;101903.00;;;;5012040;28;20190;-73
2023/05/20 12:03:43;;;;;;;0.98;0.88;;;22.30;99.90;24.50;101942.00;;;;5034908;28;20653;-72
2023/05/20 12:06:12;;;;;;;1.40;1.10;;;22.40;99.90;23.20;101937.00;;;;5047730;28;20331;-74
2023/05/20 12:08:46;;;;;;;0.55;0.55;;;21.80;99.90;24.10;101924.00;;;;5049738;28;20629;-73
2023/05/20 12:11:12;;;;;;;2.47;1.50;;;21.70;99.90;23.60;101933.00;;;;5070315;28;20243;-74
2023/05/20 12:13:39;;;;;;;0.10;0.10;;;21.80;99.90;24.00;101916.00;;;;5053882;28;20247;-74
2023/05/20 12:16:10;;;;;;;0.30;0.30;;;21.40;99.90;24.90;101920.00;;;;5070898;28;20211;-73
2023/05/20 12:18:42;;;;;;;0.75;0.75;;;22.10;99.90;23.80;101932.00;;;;5069926;28;20269;-73
2023/05/20 12:21:08;;;;;;;0.60;0.60;;;21.90;99.90;23.60;101932.00;;;;5051537;28;20182;-73
2023/05/20 12:23:40;;;;;;;0.65;0.65;;;21.60;99.90;24.00;101930.00;;;;5054919;28;20182;-73
2023/05/20 12:26:12;;;;;;;0.25;0.25;;;21.60;99.90;24.60;101870.00;;;;5052924;28;20192;-74
2023/05/20 12:28:39;;;;;;;5.38;1.08;;;21.80;99.90;24.80;101915.00;;;;5069518;28;20190;-73
2023/05/20 12:31:15;;;;;;;0.65;0.65;;;22.10;99.90;24.90;101920.00;;;;5070058;28;20312;-73
2023/05/20 12:33:41;;;;;;;0.32;0.32;;;22.30;99.90;24.50;101918.00;;;;5051782;28;20284;-74
2023/05/20 12:36:10;;;;;;;0.63;0.57;;;22.10;99.90;23.60;101902.00;;;;5070342;28;20755;-73
2023/05/20 12:38:57;;;;;;;0.40;0.40;;;21.50;99.90;25.30;101917.00;;;;5053593;28;20224;-73
2023/05/20 12:41:38;;;;;;;1.20;0.98;;;22.00;99.90;24.40;101895.00;;;;5069913;28;20198;-73
2023/05/20 12:44:04;;;;;;;0.70;0.57;;;22.00;99.90;24.00;101917.00;;;;5041595;28;20170;-73
2023/05/20 12:46:47;;;;;;;0.30;0.30;;;21.70;99.90;25.10;101904.00;;;;5054311;28;20721;-73
2023/05/20 12:49:33;;;;;;;1.33;1.23;;;21.70;99.90;23.50;101902.00;;;;5041004;28;20238;-72
2023/05/20 12:52:01;;;;;;;2.33;1.20;;;21.70;99.90;24.40;101913.00;;;;5047028;28;20199;-72
2023/05/20 12:55:26;;;;;;;0.28;0.28;;;21.80;99.90;25.20;101899.00;;;;5069648;28;20243;-72
2023/05/20 12:58:15;;;;;;;1.65;1.45;;;21.90;99.90;25.20;101911.00;;;;5050177;28;20206;-72
2023/05/20 13:01:10;;;;;;;0.45;0.40;;;22.40;99.90;25.60;101915.00;;;;5053268;28;20197;-74
2023/05/20 13:03:59;;;;;;;1.85;1.75;;;22.40;99.90;24.60;101908.00;;;;5070366;28;20637;-76
2023/05/20 13:06:54;;;;;;;1.13;0.80;;;22.20;99.90;23.90;101871.00;;;;5030098;28;20212;-77
2023/05/20 13:09:52;;;;;;;1.50;1.30;;;21.80;99.90;24.20;101890.00;;;;5042119;28;20453;-75
2023/05/20 13:16:22;;;;;;;0.75;0.73;;;21.40;99.90;23.90;101898.00;;;;5033580;28;20189;-76
2023/05/20 13:19:38;;;;;;;0.93;0.75;;;21.40;99.90;25.10;101886.00;;;;5052239;28;20192;-76
2023/05/20 13:22:30;;;;;;;0.80;0.28;;;21.50;99.90;24.60;101890.00;;;;5033219;28;20194;-75
2023/05/20 13:24:56;;;;;;;2.03;1.55;;;21.60;99.90;23.50;101885.00;;;;5041648;28;20232;-74
2023/05/20 13:27:43;;;;;;;0.88;0.88;;;21.50;99.90;24.30;101889.00;;;;5052374;28;20197;-75
2023/05/20 13:31:04;;;;;;;0.98;0.93;;;21.40;99.90;23.50;101899.00;;;;5053653;28;20170;-76
2023/05/20 13:33:58;;;;;;;1.60;1.02;;;21.40;99.90;24.10;101841.00;;;;5052175;28;20198;-77
2023/05/20 13:37:15;;;;;;;0.70;0.68;;;21.60;99.90;24.30;101900.00;;;;5048751;28;20182;-78
2023/05/20 13:40:07;;;;;;;0.20;0.20;;;21.50;99.90;24.20;101871.00;;;;5047569;28;20194;-77
2023/05/20 13:43:05;;;;;;;0.32;0.32;;;21.40;99.90;23.90;101881.00;;;;5062836;28;20272;-77
2023/05/20 13:46:18;;;;;;;2.10;1.90;;;21.40;99.90;24.30;101883.00;;;;5055269;28;20205;-78
2023/05/20 13:48:53;;;;;;;0.40;0.40;;;21.50;99.90;23.90;101892.00;;;;4979425;28;20208;-77
2023/05/20 13:51:24;;;;;;;0.35;0.35;;;21.40;99.90;24.40;101864.00;;;;5053559;28;20210;-76
2023/05/20 13:53:51;;;;;;;0.50;0.50;;;21.60;99.90;24.50;101852.00;;;;5062528;28;20232;-76
2023/05/20 13:56:20;;;;;;;0.35;0.35;;;21.70;99.90;24.00;101876.00;;;;5049726;28;20242;-75
2023/05/20 13:59:11;;;;;;;1.38;1.33;;;21.20;99.90;24.10;101853.00;;;;5044292;28;20185;-75
2023/05/20 14:02:18;;;;;;;0.50;0.50;;;21.10;99.90;24.40;101849.00;;;;5067075;28;20667;-75
2023/05/20 14:05:11;;;;;;;1.05;0.80;;;21.10;99.90;23.80;101813.00;;;;5058828;28;20198;-75
2023/05/20 14:07:44;;;;;;;0.43;0.43;;;21.10;99.90;24.00;101855.00;;;;5067362;28;20188;-75
2023/05/20 14:10:30;;;;;;;0.17;0.17;;;21.20;99.90;25.20;101846.00;;;;5060345;28;20198;-75
2023/05/20 14:13:02;;;;;;;0.47;0.47;;;21.40;99.90;24.00;101804.00;;;;5045721;28;20209;-75
2023/05/20 14:15:45;;;;;;;0.47;0.40;;;21.20;99.90;23.60;101799.00;;;;5049164;28;20590;-74
2023/05/20 14:18:28;;;;;;;0.40;0.40;;;21.30;99.90;24.40;101840.00;;;;5068502;28;20269;-78
2023/05/20 14:21:26;;;;;;;0.30;0.30;;;21.30;99.90;24.20;101840.00;;;;5044649;28;20186;-78
2023/05/20 14:24:03;;;;;;;0.98;0.50;;;21.50;99.90;24.30;101832.00;;;;5042853;28;20183;-78
2023/05/20 14:26:57;;;;;;;0.63;0.55;;;21.50;99.90;23.70;101844.00;;;;5057034;28;20191;-78
2023/05/20 14:29:46;;;;;;;1.48;1.33;;;21.50;99.90;23.50;101841.00;;;;4972707;28;20208;-77
2023/05/20 14:33:07;;;;;;;0.70;0.47;;;21.30;99.90;24.40;101828.00;;;;4943330;28;20322;-73
2023/05/20 14:35:42;;;;;;;0.10;0.10;;;21.20;99.90;25.10;101832.00;;;;5049026;28;20192;-73
2023/05/20 14:38:35;;;;;;;0.63;0.45;;;21.70;99.90;24.10;101843.00;;;;5043568;28;20519;-73
2023/05/20 14:41:21;;;;;;;2.55;1.25;;;21.80;99.90;24.50;101830.00;;;;5044838;28;20265;-73
2023/05/20 14:44:16;;;;;;;0.35;0.28;;;21.80;99.90;24.40;101838.00;;;;5045728;28;20187;-73
2023/05/20 14:47:02;;;;;;;0.47;0.47;;;21.70;99.90;24.50;101840.00;;;;5049231;28;20683;-73
2023/05/20 14:49:51;;;;;;;0.20;0.20;;;21.70;99.90;24.40;101835.00;;;;5050466;28;20186;-73
2023/05/20 14:52:23;;;;;;;1.90;1.02;;;21.80;99.90;25.20;101819.00;;;;5037957;28;20304;-73
2023/05/20 14:54:55;;;;;;;0.15;0.15;;;21.90;99.90;24.50;101832.00;;;;5034160;28;20178;-72
2023/05/20 14:57:26;;;;;;;0.20;0.20;;;21.90;99.90;24.10;101802.00;;;;5050457;28;20228;-73
2023/05/20 14:59:52;;;;;;;0.70;0.70;;;21.60;99.90;23.50;101831.00;;;;5068236;28;20194;-73
2023/05/20 15:02:36;;;;;;;0.55;0.55;;;21.30;99.90;24.00;101809.00;;;;5047782;28;20224;-73
2023/05/20 15:05:02;;;;;;;0.30;0.30;;;21.40;99.90;24.30;101823.00;;;;5061694;28;20179;-74
2023/05/20 15:07:28;;;;;;;1.42;1.00;;;21.40;99.90;23.80;101816.00;;;;5063534;28;20251;-74
2023/05/20 15:09:54;;;;;;;0.50;0.50;;;21.30;99.90;24.20;101777.00;;;;5051189;28;20178;-74
2023/05/20 15:12:20;;;;;;;0.73;0.65;;;21.50;99.90;24.10;101808.00;;;;5066920;28;20687;-75
2023/05/20 15:14:46;;;;;;;1.35;0.93;;;21.40;99.90;24.50;101798.00;;;;5067244;28;20197;-72
2023/05/20 15:17:12;;;;;;;0.22;0.22;;;21.50;99.90;25.00;101820.00;;;;5038627;28;20182;-73
2023/05/20 15:19:40;;;;;;;0.30;0.30;;;21.90;99.90;24.60;101815.00;;;;5053643;28;20214;-73
2023/05/20 15:22:28;;;;;;;1.60;1.38;;;21.70;99.90;23.20;101821.00;;;;5071223;28;20592;-72
2023/05/20 15:24:54;;;;;;;5.00;1.23;;;21.20;99.90;23.30;101832.00;;;;5055651;28;20293;-73
2023/05/20 15:27:20;;;;;;;1.08;0.82;;;21.20;99.90;24.10;101818.00;;;;5051331;28;20710;-72
2023/05/20 15:29:48;;;;;;;0.40;0.40;;;21.20;99.90;24.60;101797.00;;;;5064001;28;20255;-72
2023/05/20 15:32:18;;;;;;;0.75;0.75;;;21.40;99.90;24.10;101816.00;;;;5063656;28;20217;-72
2023/05/20 15:34:52;;;;;;;0.43;0.43;;;21.50;99.90;24.20;101799.00;;;;5071856;28;20179;-74
2023/05/20 15:37:24;;;;;;;1.38;1.27;;;21.40;99.90;23.70;101815.00;;;;5055424;28;20269;-73
2023/05/20 15:40:03;;;;;;;1.48;1.38;;;21.40;99.90;24.10;101804.00;;;;5059173;28;20179;-73
2023/05/20 15:42:36;;;;;;;2.35;1.40;;;21.40;99.90;23.00;101801.00;;;;5075114;28;20185;-72
2023/05/20 15:45:31;;;;;;;1.48;0.75;;;21.20;99.90;23.60;101814.00;;;;5077451;28;20212;-73
2023/05/20 15:48:15;;;;;;;1.02;1.02;;;21.00;99.90;24.00;101822.00;;;;5079596;28;20198;-75
2023/05/20 15:51:03;;;;;;;0.30;0.30;;;21.30;99.90;24.40;101817.00;;;;5064012;28;20200;-74
2023/05/20 15:53:29;;;;;;;0.63;0.63;;;21.40;99.90;24.50;101801.00;;;;5069070;28;20198;-74
2023/05/20 15:56:01;;;;;;;1.67;1.27;;;21.50;99.90;23.90;101807.00;;;;5063896;28;20666;-74
2023/05/20 15:59:00;;;;;;;1.17;0.98;;;21.40;99.90;23.60;101817.00;;;;5063512;28;20193;-72
2023/05/20 16:01:27;;;;;;;0.95;0.68;;;21.30;99.90;24.00;101808.00;;;;5079556;28;20593;-71
2023/05/20 16:04:14;;;;;;;0.47;0.47;;;21.30;99.90;23.80;101797.00;;;;5061362;28;20632;-71
2023/05/20 16:06:40;;;;;;;6.72;0.90;;;21.40;99.90;24.30;101811.00;;;;5078565;28;20178;-71
2023/05/20 16:09:09;;;;;;;0.60;0.50;;;21.40;99.90;23.40;101804.00;;;;5078855;28;20522;-72
2023/05/20 16:11:40;;;;;;;0.30;0.30;;;21.20;99.90;23.50;101804.00;;;;5075520;28;20193;-72
2023/05/20 16:14:06;;;;;;;1.05;0.65;;;21.00;99.90;23.60;101798.00;;;;5078874;28;20584;-72
2023/05/20 16:16:35;;;;;;;0.17;0.17;;;21.00;99.90;24.30;101763.00;;;;5077365;28;20198;-72
2023/05/20 16:19:01;;;;;;;0.55;0.55;;;21.20;99.90;23.90;101793.00;;;;5063248;28;20193;-71
2023/05/20 16:21:32;;;;;;;0.57;0.57;;;21.10;99.90;23.40;101798.00;;;;5063533;28;20197;-74
2023/05/20 16:24:01;;;;;;;1.10;1.02;;;20.90;99.90;23.50;101795.00;;;;5079730;28;20268;-71
2023/05/20 16:26:30;;;;;;;0.90;0.47;;;21.00;99.90;23.90;101788.00;;;;5078532;28;20442;-72
2023/05/20 16:28:58;;;;;;;0.68;0.68;;;21.10;99.90;24.10;101746.00;;;;5063800;28;20169;-71
2023/05/20 16:31:33;;;;;;;0.35;0.35;;;21.40;99.90;23.70;101792.00;;;;5078765;28;21151;-71
2023/05/20 16:34:24;;;;;;;0.50;0.50;;;21.20;99.90;23.00;101800.00;;;;5062291;28;20193;-71
2023/05/20 16:37:33;;;;;;;3.13;0.57;;;20.90;99.90;23.50;101786.00;;;;5079021;28;20258;-71
2023/05/20 16:40:16;;;;;;;1.08;0.98;;;20.80;99.90;23.30;101792.00;;;;5079516;28;20186;-71
2023/05/20 16:43:05;;;;;;;0.85;0.85;;;20.90;99.90;24.30;101783.00;;;;5060129;28;20273;-71
2023/05/20 16:46:13;;;;;;;0.20;0.20;;;21.10;99.90;24.10;101784.00;;;;5078523;28;20222;-71
2023/05/20 16:49:11;;;;;;;0.20;0.20;;;21.20;99.90;24.60;101777.00;;;;5059859;28;20196;-71
2023/05/20 16:51:57;;;;;;;0.73;0.47;;;21.30;99.90;24.70;101763.00;;;;5063383;28;20205;-71
2023/05/20 16:54:47;;;;;;;0.20;0.20;;;21.60;99.90;23.70;101814.00;;;;5061495;28;20292;-71
2023/05/20 16:57:31;;;;;;;0.95;0.95;;;21.40;99.90;23.70;101788.00;;;;5060925;28;20239;-71
2023/05/20 17:00:20;;;;;;;0.30;0.28;;;21.20;99.90;24.30;101760.00;;;;5062195;28;20178;-71
2023/05/20 17:03:19;;;;;;;0.57;0.57;;;21.30;99.90;23.80;101788.00;;;;5060776;28;20720;-71
2023/05/20 17:06:23;;;;;;;0.60;0.38;;;21.20;99.90;24.10;101794.00;;;;5062065;28;20186;-71
2023/05/20 17:09:30;;;;;;;0.32;0.32;;;21.20;99.90;24.90;101786.00;;;;5061522;28;20236;-71
2023/05/20 17:12:36;;;;;;;0.10;0.10;;;21.20;99.90;24.20;101803.00;;;;5061601;28;20262;-71
2023/05/20 17:15:11;;;;;;;0.13;0.13;;;21.30;99.90;24.20;101801.00;;;;5060452;28;20201;-71
2023/05/20 17:18:22;;;;;;;0.25;0.25;;;21.00;99.90;24.40;101794.00;;;;5075575;28;20248;-71
2023/05/20 17:21:00;;;;;;;0.45;0.45;;;21.00;99.90;24.10;101782.00;;;;5051272;28;20644;-71
2023/05/20 17:24:04;;;;;;;0.10;0.10;;;21.00;99.90;23.20;101816.00;;;;5046359;28;20219;-72
2023/05/20 17:26:30;;;;;;;1.45;1.05;;;20.80;99.90;23.10;101817.00;;;;5058957;28;20189;-68
2023/05/20 17:28:56;;;;;;;0.90;0.88;;;20.60;99.90;22.70;101811.00;;;;5068859;28;20186;-70
2023/05/20 17:32:22;;;;;;;;;;;;;;;;;;;;;
2023/05/20 17:35:36;;;;;;;1.00;0.77;;;20.40;99.90;23.10;101823.00;;;;5051995;28;20408;-70
2023/05/20 17:38:21;;;;;;;0.85;0.40;;;20.40;99.90;23.10;101822.00;;;;5048467;28;20214;-70
2023/05/20 17:41:21;;;;;;;0.20;0.20;;;20.50;99.90;22.70;101833.00;;;;5044571;28;20201;-70
2023/05/20 17:44:15;;;;;;;0.50;0.50;;;20.40;99.90;22.50;101828.00;;;;5042594;28;20263;-70
2023/05/20 17:47:11;;;;;;;0.70;0.70;;;20.20;99.90;22.60;101836.00;;;;5035433;28;20193;-70
2023/05/20 17:50:19;;;;;;;0.15;0.15;;;20.20;99.90;22.90;101829.00;;;;5058402;28;20194;-70
2023/05/20 17:53:31;;;;;;;5.53;0.95;;;20.30;99.90;22.10;101837.00;;;;5034256;28;20225;-70
2023/05/20 17:56:43;;;;;;;0.15;0.15;;;20.20;99.90;22.80;101829.00;;;;5051762;28;20186;-70
2023/05/20 17:59:46;;;;;;;0.73;0.68;;;20.30;99.90;22.40;101788.00;;;;5034831;28;20206;-70
2023/05/20 18:02:50;;;;;;;1.25;1.02;;;20.30;99.90;22.60;101834.00;;;;5051957;28;20202;-70
2023/05/20 18:05:45;;;;;;;0.20;0.20;;;20.30;99.90;23.30;101823.00;;;;5034061;28;20550;-70
2023/05/20 18:08:23;;;;;;;0.30;0.30;;;20.30;99.90;23.40;101824.00;;;;5056845;28;20190;-70
2023/05/20 18:11:13;;;;;;;0.10;0.10;;;20.40;99.90;23.30;101815.00;;;;5057542;28;20257;-70
2023/05/20 18:14:39;;;;;;;0.10;0.10;;;20.20;99.90;24.10;101829.00;;;;5048086;28;20540;-70
2023/05/20 18:17:07;;;;;;;0.45;0.45;;;20.40;99.90;24.00;101835.00;;;;5035916;28;20202;-70
2023/05/20 18:20:16;;;;;;;0.82;0.68;;;20.70;99.90;22.90;101833.00;;;;5049727;28;20179;-71
2023/05/20 18:22:51;;;;;;;0.22;0.22;;;20.20;99.90;23.30;101834.00;;;;5058262;28;20296;-69
2023/05/20 18:25:34;;;;;;;0.90;0.90;;;20.20;99.90;23.50;101824.00;;;;5055390;28;20220;-68
2023/05/20 18:28:12;;;;;;;0.25;0.25;;;20.30;99.90;23.20;101825.00;;;;5068061;28;20182;-68
2023/05/20 18:30:40;;;;;;;0.52;0.52;;;20.30;99.90;23.10;101826.00;;;;5051964;28;20284;-69
2023/05/20 18:33:06;;;;;;;0.30;0.30;;;20.20;99.90;23.00;101823.00;;;;5055757;28;20230;-69
2023/05/20 18:35:34;;;;;;;0.88;0.50;;;20.30;99.90;23.00;101792.00;;;;5067000;28;20185;-69
2023/05/20 18:38:00;;;;;;;0.35;0.35;;;20.20;99.90;23.00;101834.00;;;;5067397;28;20265;-69
2023/05/20 18:41:06;;;;;;;0.15;0.15;;;20.20;99.90;23.40;101831.00;;;;5050291;28;20192;-69
2023/05/20 18:44:13;;;;;;;0.40;0.40;;;20.30;99.90;23.30;101835.00;;;;5054000;28;20177;-69
2023/05/20 18:47:19;;;;;;;2.92;0.65;;;20.20;99.90;22.80;101795.00;;;;5051524;28;20192;-69
2023/05/20 18:50:28;;;;;;;0.20;0.20;;;20.10;99.90;23.30;101837.00;;;;5052907;28;20232;-69
2023/05/20 18:53:22;;;;;;;0.32;0.32;;;20.00;99.90;23.80;101840.00;;;;5020622;28;20202;-69
2023/05/20 18:56:16;;;;;;;0.10;0.10;;;20.30;99.90;24.40;101817.00;;;;5052076;28;20181;-69
2023/05/20 18:59:17;;;;;;;0.45;0.45;;;20.20;99.90;22.60;101844.00;;;;5070003;28;20218;-69
2023/05/20 19:02:32;;;;;;;0.20;0.20;;;20.10;99.90;22.90;101844.00;;;;5050688;28;20201;-69
2023/05/20 19:05:23;;;;;;;0.10;0.10;;;19.70;99.90;22.40;101847.00;;;;5049567;28;20187;-68
2023/05/20 19:08:08;;;;;;;0.10;0.10;;;19.60;99.90;23.30;101828.00;;;;5055089;28;20205;-69
2023/05/20 19:11:12;;;;;;;0.35;0.35;;;19.60;99.90;23.80;101835.00;;;;5055061;28;20182;-69
2023/05/20 19:14:05;;;;;;;0.10;0.10;;;19.90;99.90;22.80;101860.00;;;;5057861;28;20185;-69
2023/05/20 19:17:08;;;;;;;0.20;0.20;;;19.70;99.90;22.00;101856.00;;;;5056407;28;20182;-68